Time;durP1;ratioP1;P1;durP2;ratioP2;P2;SDS_P1;SDS_P2;PMS_P1;PMS_P2;Temp;Humidity;BMP_temperature;BMP_pressure;BME280_temperature;BME280_humidity;BME280_pressure;Samples;Min_cycle;Max_cycle;Signal;HPM_P1;HPM_P2
2022/06/08 00:01:52;;;;;;;;;;;;;;;-144.99;100.00;52342.09;5044929;28;19933;-60
2022/06/08 00:04:22;;;;;;;;;;;;;;;-144.99;100.00;52354.34;5035176;28;19931;-59
2022/06/08 00:06:49;;;;;;;;;;;;;;;-144.99;100.00;52374.72;5037490;28;19956;-60
2022/06/08 00:09:15;;;;;;;;;;;;;;;-144.99;100.00;52362.50;5036862;28;20449;-59
2022/06/08 00:11:42;;;;;;;;;;;;;;;-144.99;100.00;52415.47;5036382;28;19975;-60
2022/06/08 00:14:08;;;;;;;;;;;;;;;-144.99;100.00;52378.78;4698753;28;9999690;-60
2022/06/08 00:16:35;;;;;;;;;;;;;;;-144.99;100.00;52358.41;5046173;28;20392;-61
2022/06/08 00:19:03;;;;;;;;;;;;;;;-144.99;100.00;52386.94;5047044;28;20381;-59
2022/06/08 00:21:30;;;;;;;;;;;;;;;-144.99;100.00;52399.19;5049248;28;19999;-61
2022/06/08 00:23:56;;;;;;;;;;;;;;;-144.99;100.00;52378.78;5051221;28;19931;-62
2022/06/08 00:26:24;;;;;;;;;;;;;;;-144.99;100.00;52386.94;5051734;28;20016;-64
2022/06/08 00:28:51;;;;;;;;;;;;;;;-144.99;100.00;52368.59;5053314;28;19924;-63
2022/06/08 00:31:17;;;;;;;;;;;;;;;-144.99;100.00;52403.25;5053149;28;20461;-62
2022/06/08 00:33:44;;;;;;;;;;;;;;;-144.99;100.00;52360.44;5053488;28;19933;-64
2022/06/08 00:36:11;;;;;;;;;;;;;;;-144.99;100.00;52374.72;5052610;28;19925;-64
2022/06/08 00:38:38;;;;;;;;;;;;;;;-144.99;100.00;52372.69;5052834;28;20302;-63
2022/06/08 00:41:12;;;;;;;;;;;;;;;-144.99;100.00;52358.41;5052981;28;20006;-63
2022/06/08 00:43:39;;;;;;;;;;;;;;;-144.99;100.00;52370.63;5052521;28;20390;-63
2022/06/08 00:46:06;;;;;;;;;;;;;;;-144.99;100.00;52382.88;5052235;28;20397;-63
2022/06/08 00:48:36;;;;;;;;;;;;;;;-144.99;100.00;52374.72;5045070;28;20417;-62
2022/06/08 00:51:03;;;;;;;;;;;;;;;-144.99;100.00;52378.78;5039217;28;20339;-63
2022/06/08 00:53:32;;;;;;;;;;;;;;;-144.99;100.00;52403.25;5049819;28;20016;-62
2022/06/08 00:56:02;;;;;;;;;;;;;;;-144.99;100.00;52382.88;5051950;28;19960;-63
2022/06/08 00:58:29;;;;;;;;;;;;;;;-144.99;100.00;52382.88;5052650;28;19964;-63
2022/06/08 01:00:56;;;;;;;;;;;;;;;-144.99;100.00;52399.19;5055392;28;19928;-62
2022/06/08 01:03:22;;;;;;;;;;;;;;;-144.99;100.00;52411.41;5061628;28;19924;-62
2022/06/08 01:05:54;;;;;;;;;;;;;;;-144.99;100.00;52386.94;5052622;28;19955;-63
2022/06/08 01:08:23;;;;;;;;;;;;;;;-144.99;100.00;52391.03;5044249;28;19929;-62
2022/06/08 01:10:52;;;;;;;;;;;;;;;-144.99;100.00;52370.63;5040412;28;20412;-61
2022/06/08 01:13:20;;;;;;;;;;;;;;;-144.99;100.00;52364.53;5051607;28;20499;-60
2022/06/08 01:15:47;;;;;;;;;;;;;;;-144.99;100.00;52370.63;5052062;28;20458;-61
2022/06/08 01:18:13;;;;;;;;;;;;;;;-144.99;100.00;52386.94;5066889;22;19932;-69
2022/06/08 01:20:44;;;;;;;;;;;;;;;-144.99;100.00;52376.75;5052941;28;19925;-69
2022/06/08 01:23:12;;;;;;;;;;;;;;;-144.99;100.00;52382.88;5052067;28;19951;-67
2022/06/08 01:25:47;;;;;;;;;;;;;;;-144.99;100.00;52427.72;5047042;28;20019;-70
2022/06/08 01:28:18;;;;;;;;;;;;;;;-144.99;100.00;52380.84;5049590;28;20346;-71
2022/06/08 01:30:50;;;;;;;;;;;;;;;-144.99;100.00;52382.88;5052560;28;20090;-71
2022/06/08 01:33:35;;;;;;;;;;;;;;;-144.99;100.00;52354.34;5052915;28;19987;-71
2022/06/08 01:36:09;;;;;;;;;;;;;;;-144.99;100.00;52362.50;5052314;28;19956;-71
2022/06/08 01:38:44;;;;;;;;;;;;;;;-144.99;100.00;52386.94;5039807;28;19929;-70
2022/06/08 01:41:28;;;;;;;;;;;;;;;-144.99;100.00;52358.41;5052715;28;20181;-71
2022/06/08 01:43:58;;;;;;;;;;;;;;;-144.99;100.00;52374.72;5052662;28;19925;-72
2022/06/08 01:46:26;;;;;;;;;;;;;;;-144.99;100.00;52415.47;5052775;28;20399;-72
2022/06/08 01:49:05;;;;;;;;;;;;;;;-144.99;100.00;52338.03;5052588;28;19972;-71
2022/06/08 01:51:41;;;;;;;;;;;;;;;-144.99;100.00;52380.84;5039828;28;19944;-72
2022/06/08 01:54:14;;;;;;;;;;;;;;;-144.99;100.00;52399.19;5052707;28;19967;-71
2022/06/08 01:56:45;;;;;;;;;;;;;;;-144.99;100.00;52382.88;5052222;28;20203;-72
2022/06/08 01:59:18;;;;;;;;;;;;;;;-144.99;100.00;52395.09;5052560;28;19932;-72
2022/06/08 02:01:49;;;;;;;;;;;;;;;-144.99;100.00;52419.56;5057149;28;20131;-71
2022/06/08 02:04:19;;;;;;;;;;;;;;;-144.99;100.00;52391.03;5052099;28;20417;-72
2022/06/08 02:06:49;;;;;;;;;;;;;;;-144.99;100.00;52386.94;5052255;28;19931;-71
2022/06/08 02:09:21;;;;;;;;;;;;;;;-144.99;100.00;52397.13;5052282;28;20508;-71
2022/06/08 02:11:50;;;;;;;;;;;;;;;-144.99;100.00;52391.03;5062924;28;20391;-71
2022/06/08 02:14:20;;;;;;;;;;;;;;;-144.99;100.00;52405.28;5053197;28;19929;-67
2022/06/08 02:16:48;;;;;;;;;;;;;;;-144.99;100.00;52391.03;5052353;28;20316;-68
2022/06/08 02:19:16;;;;;;;;;;;;;;;-144.99;100.00;52374.72;5052430;28;19925;-68
2022/06/08 02:21:44;;;;;;;;;;;;;;;-144.99;100.00;52419.56;5051754;28;20028;-68
2022/06/08 02:24:15;;;;;;;;;;;;;;;-144.99;100.00;52411.41;5052204;28;19929;-68
2022/06/08 02:26:44;;;;;;;;;;;;;;;-144.99;100.00;52415.47;5051891;28;19925;-67
2022/06/08 02:29:13;;;;;;;;;;;;;;;-144.99;100.00;52411.41;5052155;28;20385;-69
2022/06/08 02:31:43;;;;;;;;;;;;;;;-144.99;100.00;52358.41;5051525;28;19960;-69
2022/06/08 02:34:29;;;;;;;;;;;;;;;-144.99;100.00;52409.38;5051993;28;20000;-69
2022/06/08 02:36:59;;;;;;;;;;;;;;;-144.99;100.00;52370.63;5058655;28;20432;-69
2022/06/08 02:39:29;;;;;;;;;;;;;;;-144.99;100.00;52378.78;5062845;28;20004;-67
2022/06/08 02:42:00;;;;;;;;;;;;;;;-144.99;100.00;52362.50;5056223;28;20360;-67
2022/06/08 02:44:29;;;;;;;;;;;;;;;-144.99;100.00;52399.19;5050589;28;20040;-67
2022/06/08 02:47:01;;;;;;;;;;;;;;;-144.99;100.00;52399.19;5051618;28;19976;-68
2022/06/08 02:49:28;;;;;;;;;;;;;;;-144.99;100.00;52419.56;5051847;28;19932;-67
2022/06/08 02:52:01;;;;;;;;;;;;;;;-144.99;100.00;52370.63;5051091;28;19987;-68
2022/06/08 02:54:28;;;;;;;;;;;;;;;-144.99;100.00;52370.63;5048452;28;19967;-67
2022/06/08 02:56:59;;;;;;;;;;;;;;;-144.99;100.00;52380.84;5050849;28;20012;-70
2022/06/08 02:59:30;;;;;;;;;;;;;;;-144.99;100.00;52403.25;5051850;28;20015;-68
2022/06/08 03:01:59;;;;;;;;;;;;;;;-144.99;100.00;52409.38;5062793;28;20019;-68
2022/06/08 03:04:28;;;;;;;;;;;;;;;-144.99;100.00;52415.47;5051895;28;20039;-68
2022/06/08 03:06:56;;;;;;;;;;;;;;;-144.99;100.00;52378.78;5057580;28;19964;-68
2022/06/08 03:09:23;;;;;;;;;;;;;;;-144.99;100.00;52380.84;5061519;28;20082;-68
2022/06/08 03:11:52;;;;;;;;;;;;;;;-144.99;100.00;52370.63;5058565;28;19975;-68
2022/06/08 03:14:20;;;;;;;;;;;;;;;-144.99;100.00;52386.94;5051281;28;19931;-68
2022/06/08 03:16:54;;;;;;;;;;;;;;;-144.99;100.00;52413.44;5050576;28;20020;-68
2022/06/08 03:19:21;;;;;;;;;;;;;;;-144.99;100.00;52358.41;5038496;28;19925;-68
2022/06/08 03:21:47;;;;;;;;;;;;;;;-144.99;100.00;52397.13;5050717;28;20483;-68
2022/06/08 03:24:14;;;;;;;;;;;;;;;-144.99;100.00;52374.72;5051180;28;19971;-68
2022/06/08 03:26:42;;;;;;;;;;;;;;;-144.99;100.00;52378.78;5050470;28;20008;-68
2022/06/08 03:29:08;;;;;;;;;;;;;;;-144.99;100.00;52407.31;5051775;28;20008;-68
2022/06/08 03:31:36;;;;;;;;;;;;;;;-144.99;100.00;52382.88;5051281;28;19924;-68
2022/06/08 03:34:03;;;;;;;;;;;;;;;-144.99;100.00;52399.19;5052007;28;20024;-68
2022/06/08 03:36:29;;;;;;;;;;;;;;;-144.99;100.00;52342.09;5050266;28;20209;-68
2022/06/08 03:38:56;;;;;;;;;;;;;;;-144.99;100.00;52380.84;5051926;28;20019;-68
2022/06/08 03:41:22;;;;;;;;;;;;;;;-144.99;100.00;52386.94;5051488;28;19967;-71
2022/06/08 03:43:49;;;;;;;;;;;;;;;-144.99;100.00;52362.50;5051049;28;20460;-71
2022/06/08 03:46:17;;;;;;;;;;;;;;;-144.99;100.00;52372.69;5050886;28;19983;-71
2022/06/08 03:48:45;;;;;;;;;;;;;;;-144.99;100.00;52374.72;5050574;28;20019;-71
2022/06/08 03:51:13;;;;;;;;;;;;;;;-144.99;100.00;52380.84;5050871;28;20034;-72
2022/06/08 03:53:43;;;;;;;;;;;;;;;-144.99;100.00;52378.78;5050883;28;20377;-72
2022/06/08 03:56:10;;;;;;;;;;;;;;;-144.99;100.00;52378.78;5049311;28;19935;-69
2022/06/08 03:58:37;;;;;;;;;;;;;;;-144.99;100.00;52354.34;5050634;28;19968;-68
2022/06/08 04:01:04;;;;;;;;;;;;;;;-144.99;100.00;52358.41;5054745;28;19956;-68
2022/06/08 04:03:31;;;;;;;;;;;;;;;-144.99;100.00;52380.84;5050305;28;19925;-68
2022/06/08 04:06:00;;;;;;;;;;;;;;;-144.99;100.00;52378.78;5050348;28;20012;-68
2022/06/08 04:08:27;;;;;;;;;;;;;;;-144.99;100.00;52403.25;5042241;28;19924;-68
2022/06/08 04:10:54;;;;;;;;;;;;;;;-144.99;100.00;52388.97;5055052;28;20393;-68
2022/06/08 04:13:20;;;;;;;;;;;;;;;-144.99;100.00;52358.41;5067598;28;19929;-69
2022/06/08 04:15:47;;;;;;;;;;;;;;;-144.99;100.00;52388.97;5060145;28;19924;-69
2022/06/08 04:18:14;;;;;;;;;;;;;;;-144.99;100.00;52388.97;5050378;28;20007;-68
2022/06/08 04:20:42;;;;;;;;;;;;;;;-144.99;100.00;52350.25;5050625;28;19925;-68
2022/06/08 04:23:10;;;;;;;;;;;;;;;-144.99;100.00;52366.56;5052366;28;19963;-68
2022/06/08 04:25:37;;;;;;;;;;;;;;;-144.99;100.00;52386.94;5057170;28;19928;-69
2022/06/08 04:28:03;;;;;;;;;;;;;;;-144.99;100.00;52382.88;5050644;28;19964;-69
2022/06/08 04:30:31;;;;;;;;;;;;;;;-144.99;100.00;52407.31;5050091;28;19978;-68
2022/06/08 04:32:57;;;;;;;;;;;;;;;-144.99;100.00;52386.94;5049985;28;19995;-69
2022/06/08 04:35:24;;;;;;;;;;;;;;;-144.99;100.00;52427.72;5049505;28;19956;-68
2022/06/08 04:37:51;;;;;;;;;;;;;;;-144.99;100.00;52374.72;5050125;28;19978;-68
2022/06/08 04:40:19;;;;;;;;;;;;;;;-144.99;100.00;52399.19;5050187;28;20205;-69
2022/06/08 04:42:46;;;;;;;;;;;;;;;-144.99;100.00;52354.34;5050122;28;19931;-70
2022/06/08 04:45:13;;;;;;;;;;;;;;;-144.99;100.00;52333.94;5049647;28;20008;-70
2022/06/08 04:47:39;;;;;;;;;;;;;;;-144.99;100.00;52382.88;5050185;28;20207;-70
2022/06/08 04:50:06;;;;;;;;;;;;;;;-144.99;100.00;52354.34;5051325;28;19976;-69
2022/06/08 04:52:33;;;;;;;;;;;;;;;-144.99;100.00;52352.28;5051983;28;19929;-70
2022/06/08 04:55:00;;;;;;;;;;;;;;;-144.99;100.00;52374.72;5048289;28;20338;-69
2022/06/08 04:57:29;;;;;;;;;;;;;;;-144.99;100.00;52384.91;5057579;28;19932;-68
2022/06/08 04:59:56;;;;;;;;;;;;;;;-144.99;100.00;52395.09;5056439;28;20446;-68
2022/06/08 05:05:07;;;;;;;;;;;;;;;-144.99;100.00;52338.03;5056090;28;19935;-67
2022/06/08 05:07:33;;;;;;;;;;;;;;;-144.99;100.00;52399.19;5055205;28;20363;-68
2022/06/08 05:09:59;;;;;;;;;;;;;;;-144.99;100.00;52338.03;5053225;28;19964;-70
2022/06/08 05:12:27;;;;;;;;;;;;;;;-144.99;100.00;52358.41;5065913;28;20012;-69
2022/06/08 05:14:54;;;;;;;;;;;;;;;-144.99;100.00;52378.78;5053137;28;19964;-69
2022/06/08 05:17:20;;;;;;;;;;;;;;;-144.99;100.00;52313.56;5052788;28;20028;-70
2022/06/08 05:19:47;;;;;;;;;;;;;;;-144.99;100.00;52366.56;5053709;28;20405;-70
2022/06/08 05:22:13;;;;;;;;;;;;;;;-144.99;100.00;52329.88;5053291;28;20415;-70
2022/06/08 05:24:40;;;;;;;;;;;;;;;-144.99;100.00;52333.94;5055799;28;20365;-70
2022/06/08 05:27:06;;;;;;;;;;;;;;;-144.99;100.00;52329.88;5052652;28;20138;-70
2022/06/08 05:29:34;;;;;;;;;;;;;;;-144.99;100.00;52354.34;5052878;28;20290;-70
2022/06/08 05:32:01;;;;;;;;;;;;;;;-144.99;100.00;52352.28;5052134;28;20402;-71
2022/06/08 05:34:27;;;;;;;;;;;;;;;-144.99;100.00;52333.94;5052645;28;20015;-70
2022/06/08 05:36:54;;;;;;;;;;;;;;;-144.99;100.00;52370.63;5052280;28;19999;-70
2022/06/08 05:39:21;;;;;;;;;;;;;;;-144.99;100.00;52305.41;5053143;28;19929;-69
2022/06/08 05:41:47;;;;;;;;;;;;;;;-144.99;100.00;52346.19;5052368;28;20087;-69
2022/06/08 05:44:15;;;;;;;;;;;;;;;-144.99;100.00;52325.81;5052498;28;19968;-68
2022/06/08 05:46:43;;;;;;;;;;;;;;;-144.99;100.00;52285.03;5051777;28;19928;-68
2022/06/08 05:49:09;;;;;;;;;;;;;;;-144.99;100.00;52366.56;5052581;28;19960;-69
2022/06/08 05:51:36;;;;;;;;;;;;;;;-144.99;100.00;52354.34;5052945;28;19956;-69
2022/06/08 05:54:02;;;;;;;;;;;;;;;-144.99;100.00;52315.59;5053735;28;19925;-69
2022/06/08 05:56:29;;;;;;;;;;;;;;;-144.99;100.00;52342.09;5051840;28;20021;-68
2022/06/08 05:58:55;;;;;;;;;;;;;;;-144.99;100.00;52333.94;5052694;28;19972;-70
2022/06/08 06:01:22;;;;;;;;;;;;;;;-144.99;100.00;52309.50;5051924;28;19968;-69
2022/06/08 06:03:51;;;;;;;;;;;;;;;-144.99;100.00;52348.22;5052094;28;19925;-69
2022/06/08 06:06:18;;;;;;;;;;;;;;;-144.99;100.00;52338.03;5052269;28;20039;-70
2022/06/08 06:08:45;;;;;;;;;;;;;;;-144.99;100.00;52293.19;5052432;28;20019;-70
2022/06/08 06:11:13;;;;;;;;;;;;;;;-144.99;99.80;52336.00;5051691;28;19924;-68
2022/06/08 06:13:39;;;;;;;;;;;;;;;-144.99;97.43;52301.34;5052219;28;19925;-69
2022/06/08 06:16:06;;;;;;;;;;;;;;;-144.99;96.39;52321.72;5052077;28;20321;-69
2022/06/08 06:18:32;;;;;;;;;;;;;;;-144.99;95.23;52299.31;5051170;28;19978;-68
2022/06/08 06:21:00;;;;;;;;;;;;;;;-144.99;94.28;52311.53;5052009;28;20011;-68
2022/06/08 06:23:27;;;;;;;;;;;;;;;-144.99;93.98;52301.34;5052671;28;20369;-71
2022/06/08 06:25:54;;;;;;;;;;;;;;;-144.99;92.59;52313.56;5053423;28;20023;-71
2022/06/08 06:28:20;;;;;;;;;;;;;;;-144.99;91.67;52285.03;5052522;28;20295;-71
2022/06/08 06:30:47;;;;;;;;;;;;;;;-144.99;90.35;52307.47;5051791;28;20031;-72
2022/06/08 06:33:14;;;;;;;;;;;;;;;-144.99;90.41;52280.97;5051599;28;20336;-71
2022/06/08 06:35:41;;;;;;;;;;;;;;;-144.99;90.90;52280.97;5052403;28;20252;-72
2022/06/08 06:38:10;;;;;;;;;;;;;;;-144.99;90.08;52305.41;5055610;28;20053;-72
2022/06/08 06:40:37;;;;;;;;;;;;;;;-144.99;89.33;52303.38;5052734;28;20394;-70
2022/06/08 06:43:04;;;;;;;;;;;;;;;-144.99;90.16;52297.25;5051005;28;20381;-70
2022/06/08 06:45:31;;;;;;;;;;;;;;;-144.99;89.09;52252.44;5050828;28;19939;-69
2022/06/08 06:47:58;;;;;;;;;;;;;;;-144.99;88.90;52301.34;5050894;28;20425;-70
2022/06/08 06:50:25;;;;;;;;;;;;;;;-144.99;87.50;52333.94;5051129;28;20011;-70
2022/06/08 06:52:52;;;;;;;;;;;;;;;-144.99;87.25;52268.72;5051069;28;19925;-69
2022/06/08 06:55:22;;;;;;;;;;;;;;;-144.99;89.39;52321.72;5051116;28;19974;-69
2022/06/08 06:57:48;;;;;;;;;;;;;;;-144.99;89.44;52262.63;5051381;28;19970;-70
2022/06/08 07:00:16;;;;;;;;;;;;;;;-144.99;88.21;52270.78;5051180;28;19929;-70
2022/06/08 07:02:43;;;;;;;;;;;;;;;-144.99;87.33;52305.41;5063201;28;19931;-68
2022/06/08 07:05:11;;;;;;;;;;;;;;;-144.99;85.82;52264.66;5051042;28;19984;-69
2022/06/08 07:07:38;;;;;;;;;;;;;;;-144.99;86.34;52305.41;5050625;28;19971;-70
2022/06/08 07:10:05;;;;;;;;;;;;;;;-144.99;86.35;52295.22;5044917;28;19979;-69
2022/06/08 07:12:33;;;;;;;;;;;;;;;-144.99;86.40;52331.91;5062805;28;19964;-69
2022/06/08 07:14:59;;;;;;;;;;;;;;;-144.99;85.91;52317.66;5050465;28;20023;-69
2022/06/08 07:17:25;;;;;;;;;;;;;;;-144.99;86.74;52264.66;5050281;28;19975;-70
2022/06/08 07:19:52;;;;;;;;;;;;;;;-144.99;88.01;52348.22;5049923;22;19979;-62
2022/06/08 07:22:19;;;;;;;;;;;;;;;-144.99;87.24;52309.50;5024820;28;19960;-63
2022/06/08 07:24:45;;;;;;;;;;;;;;;-144.99;87.71;52276.88;5023825;28;19925;-64
2022/06/08 07:27:12;;;;;;;;;;;;;;;-144.99;86.77;52280.97;5027971;28;20036;-65
2022/06/08 07:29:39;;;;;;;;;;;;;;;-144.99;84.42;52280.97;5030620;28;19925;-63
2022/06/08 07:32:06;;;;;;;;;;;;;;;-144.99;85.24;52285.03;5017283;28;19971;-62
2022/06/08 07:34:33;;;;;;;;;;;;;;;-144.99;82.57;52299.31;5030439;28;20004;-63
2022/06/08 07:37:00;;;;;;;;;;;;;;;-144.99;81.90;52262.63;5032006;28;19925;-62
2022/06/08 07:39:27;;;;;;;;;;;;;;;-144.99;82.94;52276.88;5032889;28;19928;-62
2022/06/08 07:41:55;;;;;;;;;;;;;;;-144.99;82.97;52266.69;5031160;28;19929;-62
2022/06/08 07:44:21;;;;;;;;;;;;;;;-144.99;82.80;52293.19;5031168;28;20275;-64
2022/06/08 07:46:49;;;;;;;;;;;;;;;-144.99;82.24;52276.88;5031719;28;20177;-63
2022/06/08 07:52:01;;;;;;;;;;;;;;;-144.99;80.99;52268.72;5029693;28;20019;-63
2022/06/08 07:54:30;;;;;;;;;;;;;;;-144.99;79.70;52280.97;5029695;28;19925;-64
2022/06/08 07:56:56;;;;;;;;;;;;;;;-144.99;76.90;52244.28;5030197;28;19931;-63
2022/06/08 07:59:27;;;;;;;;;;;;;;;-144.99;78.01;52260.56;5031063;28;20029;-63
2022/06/08 08:01:55;;;;;;;;;;;;;;;-144.99;77.29;52248.34;5041425;28;19928;-64
2022/06/08 08:04:21;;;;;;;;;;;;;;;-144.99;75.42;52240.19;5030436;28;19933;-64
2022/06/08 08:06:48;;;;;;;;;;;;;;;-144.99;74.14;52244.28;5030332;28;19931;-64
2022/06/08 08:09:17;;;;;;;;;;;;;;;-144.99;72.21;52272.81;5030240;28;19964;-64
2022/06/08 08:11:44;;;;;;;;;;;;;;;-144.99;72.29;52254.47;5030043;28;20401;-63
2022/06/08 08:14:12;;;;;;;;;;;;;;;-144.99;71.26;52236.13;5030546;28;19940;-64
2022/06/08 08:16:38;;;;;;;;;;;;;;;-144.99;68.11;52264.66;5029692;28;19925;-64
2022/06/08 08:19:06;;;;;;;;;;;;;;;-144.99;70.16;52221.84;5030061;28;20441;-65
2022/06/08 08:21:33;;;;;;;;;;;;;;;-144.99;67.89;52230.00;5029860;28;19925;-64
2022/06/08 08:23:59;;;;;;;;;;;;;;;-144.99;63.97;52232.03;5030149;28;20015;-64
2022/06/08 08:26:27;;;;;;;;;;;;;;;-144.99;62.79;52258.53;5029877;28;19932;-64
2022/06/08 08:28:53;;;;;;;;;;;;;;;-144.99;63.01;52262.63;5029774;28;20457;-64
2022/06/08 08:31:20;;;;;;;;;;;;;;;-144.99;62.75;52242.22;5029813;28;19932;-65
2022/06/08 08:33:46;;;;;;;;;;;;;;;-144.99;63.28;52256.50;5029965;28;20023;-63
2022/06/08 08:36:14;;;;;;;;;;;;;;;-144.99;64.11;52211.66;5028165;28;20438;-64
2022/06/08 08:38:40;;;;;;;;;;;;;;;-144.99;61.91;52213.69;5030306;28;19925;-66
2022/06/08 08:42:20;;;;;;;;;;;;;;;-144.99;60.12;52227.97;5030193;28;19931;-62
2022/06/08 08:43:54;;;;;;;;;;;;;;;-144.99;57.13;52203.50;5033822;28;19936;-67
2022/06/08 08:46:27;;;;;;;;;;;;;;;-144.99;57.08;52187.19;5033589;28;19925;-66
2022/06/08 08:48:54;;;;;;;;;;;;;;;-144.99;55.62;52219.81;5033975;28;19979;-66
2022/06/08 08:51:25;;;;;;;;;;;;;;;-144.99;55.67;52227.97;5033810;28;19932;-66
2022/06/08 08:53:59;;;;;;;;;;;;;;;-144.99;55.46;52256.50;5028651;28;19925;-65
2022/06/08 08:56:28;;;;;;;;;;;;;;;-144.99;55.53;52264.66;5021206;28;20341;-62
2022/06/08 08:58:55;;;;;;;;;;;;;;;-144.99;54.92;52187.19;5033338;28;19981;-62
2022/06/08 09:01:24;;;;;;;;;;;;;;;-144.99;53.42;52215.75;5039815;28;19979;-62
2022/06/08 09:03:55;;;;;;;;;;;;;;;-144.99;52.56;52187.19;5037861;28;20469;-63
2022/06/08 09:06:24;;;;;;;;;;;;;;;-144.99;51.87;52240.19;5033260;28;19929;-63
2022/06/08 09:08:52;;;;;;;;;;;;;;;-144.99;53.18;52248.34;5032524;28;20360;-63
2022/06/08 09:11:22;;;;;;;;;;;;;;;-144.99;52.54;52201.47;5029461;28;20023;-63
2022/06/08 09:13:50;;;;;;;;;;;;;;;-144.99;53.33;52236.13;5033186;28;19976;-62
2022/06/08 09:16:28;;;;;;;;;;;;;;;-144.99;52.12;52248.34;5032824;28;20559;-62
2022/06/08 09:18:54;;;;;;;;;;;;;;;-144.99;53.20;52211.66;5033667;28;20374;-62
2022/06/08 09:21:27;;;;;;;;;;;;;;;-144.99;51.99;52225.94;5034942;28;20035;-62
2022/06/08 09:23:55;;;;;;;;;;;;;;;-144.99;51.59;52264.66;5030219;28;19929;-62
2022/06/08 09:26:29;;;;;;;;;;;;;;;-144.99;51.88;52252.44;5034385;28;20016;-63
2022/06/08 09:28:57;;;;;;;;;;;;;;;-144.99;50.89;52195.34;5028812;28;19971;-63
2022/06/08 09:31:25;;;;;;;;;;;;;;;-144.99;51.72;52219.81;5026937;28;19931;-62
2022/06/08 09:34:03;;;;;;;;;;;;;;;-144.99;51.47;52193.31;5032802;28;19959;-62
2022/06/08 09:36:31;;;;;;;;;;;;;;;-144.99;50.86;52215.75;5031592;28;19983;-62
2022/06/08 09:38:57;;;;;;;;;;;;;;;-144.99;50.62;52219.81;5033445;28;20019;-62
2022/06/08 09:41:26;;;;;;;;;;;;;;;-144.99;49.36;52201.47;5032990;28;20448;-62
2022/06/08 09:44:15;;;;;;;;;;;;;;;-144.99;48.64;52183.13;5033698;28;19971;-62
2022/06/08 09:52:42;;;;;;;;;;;;;;;-144.99;48.00;52179.06;4991227;28;19929;-63
2022/06/08 09:55:17;;;;;;;;;;;;;;;-144.99;47.68;52187.19;4990799;28;20469;-63
2022/06/08 09:57:46;;;;;;;;;;;;;;;-144.99;48.27;52207.59;5009980;28;19976;-58
2022/06/08 10:00:19;;;;;;;;;;;;;;;-144.99;47.85;52148.47;5030698;28;19929;-63
2022/06/08 10:02:52;;;;;;;;;;;;;;;-144.99;47.44;52174.97;5021728;28;20091;-63
2022/06/08 10:05:24;;;;;;;;;;;;;;;-144.99;48.06;52185.16;5022840;28;19948;-64
2022/06/08 10:08:11;;;;;;;;;;;;;;;-144.99;50.34;52211.66;5027998;28;19960;-63
2022/06/08 10:10:42;;;;;;;;;;;;;;;-144.99;50.18;52232.03;5026508;28;19960;-63
2022/06/08 10:13:12;;;;;;;;;;;;;;;-144.99;50.65;52203.50;5027200;28;20481;-64
2022/06/08 10:15:42;;;;;;;;;;;;;;;-144.99;51.13;52225.94;5025033;28;19968;-62
2022/06/08 10:18:15;;;;;;;;;;;;;;;-144.99;51.05;52219.81;5030735;28;20290;-64
2022/06/08 10:20:45;;;;;;;;;;;;;;;-144.99;52.47;52258.53;5033273;28;19956;-62
2022/06/08 10:23:19;;;;;;;;;;;;;;;-144.99;52.86;52240.19;5030574;28;19993;-64
2022/06/08 10:25:48;;;;;;;;;;;;;;;-144.99;52.89;52203.50;5019070;28;19965;-63
2022/06/08 10:28:19;;;;;;;;;;;;;;;-144.99;52.93;52223.88;5028120;28;20039;-63
2022/06/08 10:30:50;;;;;;;;;;;;;;;-144.99;52.61;52223.88;5027619;28;20123;-62
2022/06/08 10:33:18;;;;;;;;;;;;;;;-144.99;53.04;52199.44;5028216;28;20341;-62
2022/06/08 10:35:48;;;;;;;;;;;;;;;-144.99;53.49;52211.66;5025871;28;20421;-62
2022/06/08 10:38:19;;;;;;;;;;;;;;;-144.99;52.89;52164.78;5026581;28;19925;-63
2022/06/08 10:40:48;;;;;;;;;;;;;;;-144.99;51.63;52146.44;5022152;28;20207;-62
2022/06/08 10:43:18;;;;;;;;;;;;;;;-144.99;51.14;52170.91;5026305;28;19925;-62
2022/06/08 10:45:47;;;;;;;;;;;;;;;-144.99;50.33;52146.44;5024764;28;20126;-62
2022/06/08 10:48:26;;;;;;;;;;;;;;;-144.99;50.19;52179.06;5027937;28;19963;-63
2022/06/08 10:51:20;;;;;;;;;;;;;;;-144.99;50.93;52193.31;5028802;28;19939;-63
2022/06/08 10:56:46;;;;;;;;;;;;;;;-144.99;51.00;52183.13;5024340;28;19932;-62
2022/06/08 10:59:14;;;;;;;;;;;;;;;-144.99;50.68;52223.88;5026540;28;19932;-63
2022/06/08 11:01:49;;;;;;;;;;;;;;;-144.99;50.42;52195.34;5021357;28;19936;-63
2022/06/08 11:04:31;;;;;;;;;;;;;;;-144.99;51.61;52215.75;5024805;28;19980;-63
2022/06/08 11:07:02;;;;;;;;;;;;;;;-144.99;53.16;52217.78;5027281;28;19929;-63
2022/06/08 11:10:03;;;;;;;;;;;;;;;-144.99;53.15;52207.59;5019940;28;20015;-63
2022/06/08 11:12:36;;;;;;;;;;;;;;;-144.99;51.64;52177.00;4945937;29;19970;-63
2022/06/08 11:15:10;;;;;;;;;;;;;;;-144.99;51.69;52197.41;4946360;29;19935;-63
2022/06/08 11:17:40;;;;;;;;;;;;;;;-144.99;50.91;52146.44;4986859;28;19929;-64
2022/06/08 11:20:13;;;;;;;;;;;;;;;-144.99;49.92;52117.91;5026300;28;20012;-63
2022/06/08 11:22:42;;;;;;;;;;;;;;;-144.99;48.96;52105.69;5026694;28;20298;-63
2022/06/08 11:25:12;;;;;;;;;;;;;;;-144.99;49.27;52154.59;5026895;28;20019;-64
2022/06/08 11:27:40;;;;;;;;;;;;;;;-144.99;48.28;52183.13;5027388;28;19929;-63
2022/06/08 11:30:08;;;;;;;;;;;;;;;-144.99;48.80;52166.81;5029288;28;19929;-64
2022/06/08 11:32:58;;;;;;;;;;;;;;;-144.99;48.32;52191.28;5015114;28;20024;-62
2022/06/08 11:35:58;;;;;;;;;;;;;;;-144.99;48.11;52191.28;5028821;28;20024;-63
2022/06/08 11:38:34;;;;;;;;;;;;;;;-144.99;49.79;52232.03;4971969;28;19988;-63
2022/06/08 11:41:14;;;;;;;;;;;;;;;-144.99;50.76;52238.16;4961296;28;19926;-63
2022/06/08 11:43:42;;;;;;;;;;;;;;;-144.99;52.46;52223.88;5003102;28;20381;-62
2022/06/08 11:46:20;;;;;;;;;;;;;;;-144.99;53.48;52297.25;5028766;28;19968;-62
2022/06/08 11:48:49;;;;;;;;;;;;;;;-144.99;53.10;52223.88;5028500;28;19983;-63
2022/06/08 11:51:28;;;;;;;;;;;;;;;-144.99;53.53;52264.66;5029359;28;19951;-62
2022/06/08 11:53:56;;;;;;;;;;;;;;;-144.99;53.04;52248.34;5029193;28;19925;-62
2022/06/08 11:56:34;;;;;;;;;;;;;;;-144.99;53.45;52232.03;5028869;28;20040;-62
2022/06/08 11:59:03;;;;;;;;;;;;;;;-144.99;54.48;52217.78;5028931;28;20390;-66
2022/06/08 12:01:32;;;;;;;;;;;;;;;-144.99;53.78;52227.97;5032593;28;19929;-63
2022/06/08 12:04:00;;;;;;;;;;;;;;;-144.99;54.19;52236.13;5029084;28;19971;-63
2022/06/08 12:06:29;;;;;;;;;;;;;;;-144.99;53.59;52207.59;5027389;28;20390;-68
2022/06/08 12:08:58;;;;;;;;;;;;;;;-144.99;53.80;52215.75;5028707;28;20186;-63
2022/06/08 12:11:28;;;;;;;;;;;;;;;-144.99;52.90;52252.44;5027967;28;20051;-63
2022/06/08 12:13:56;;;;;;;;;;;;;;;-144.99;54.26;52215.75;5028181;28;19929;-63
2022/06/08 12:16:27;;;;;;;;;;;;;;;-144.99;53.49;52240.19;5029135;28;19991;-64
2022/06/08 12:18:55;;;;;;;;;;;;;;;-144.99;54.39;52227.97;5031459;28;19932;-64
2022/06/08 12:21:24;;;;;;;;;;;;;;;-144.99;54.25;52252.44;5032943;28;20042;-62
2022/06/08 12:23:59;;;;;;;;;;;;;;;-144.99;54.35;52264.66;5032151;28;20015;-62
2022/06/08 12:26:27;;;;;;;;;;;;;;;-144.99;54.31;52256.50;5032515;28;19964;-63
2022/06/08 12:29:01;;;;;;;;;;;;;;;-144.99;55.22;52260.56;5032382;28;19937;-64
2022/06/08 12:31:31;;;;;;;;;;;;;;;-144.99;55.52;52270.78;5032101;28;20421;-63
2022/06/08 12:33:57;;;;;;;;;;;;;;;-144.99;55.54;52285.03;5031928;28;20386;-64
2022/06/08 12:36:27;;;;;;;;;;;;;;;-144.99;55.42;52232.03;5027522;28;19979;-64
2022/06/08 12:39:01;;;;;;;;;;;;;;;-144.99;55.29;52199.44;5032135;28;19991;-64
2022/06/08 12:41:38;;;;;;;;;;;;;;;-144.99;55.51;52256.50;5032277;28;20062;-65
2022/06/08 12:44:06;;;;;;;;;;;;;;;-144.99;55.33;52240.19;5032155;28;20289;-65
2022/06/08 12:46:35;;;;;;;;;;;;;;;-144.99;55.26;52272.81;5032885;28;19925;-63
2022/06/08 12:49:10;;;;;;;;;;;;;;;-144.99;55.21;52166.81;5032254;28;20298;-64